sensor_id;sensor_type;location;lat;lon;timestamp;P1;durP1;ratioP1;P2;durP2;ratioP2
62554;SDS011;48610;52.144;8.624;2022-11-20T00:01:30;29.63;;;14.90;;
62554;SDS011;48610;52.144;8.624;2022-11-20T00:04:31;28.08;;;15.50;;
62554;SDS011;48610;52.144;8.624;2022-11-20T00:07:32;24.80;;;13.55;;
62554;SDS011;48610;52.144;8.624;2022-11-20T00:10:32;26.58;;;13.73;;
62554;SDS011;48610;52.144;8.624;2022-11-20T00:13:37;28.00;;;13.93;;
62554;SDS011;48610;52.144;8.624;2022-11-20T00:16:38;24.38;;;13.10;;
62554;SDS011;48610;52.144;8.624;2022-11-20T00:19:38;27.42;;;14.57;;
62554;SDS011;48610;52.144;8.624;2022-11-20T00:22:39;25.88;;;14.10;;
62554;SDS011;48610;52.144;8.624;2022-11-20T00:25:39;22.38;;;12.00;;
62554;SDS011;48610;52.144;8.624;2022-11-20T00:28:40;26.33;;;13.32;;
62554;SDS011;48610;52.144;8.624;2022-11-20T00:31:41;23.77;;;14.07;;
62554;SDS011;48610;52.144;8.624;2022-11-20T00:34:42;27.35;;;13.65;;
62554;SDS011;48610;52.144;8.624;2022-11-20T00:37:42;20.50;;;11.40;;
62554;SDS011;48610;52.144;8.624;2022-11-20T00:40:43;31.42;;;13.85;;
62554;SDS011;48610;52.144;8.624;2022-11-20T00:43:44;27.25;;;13.65;;
62554;SDS011;48610;52.144;8.624;2022-11-20T00:46:44;27.23;;;13.30;;
62554;SDS011;48610;52.144;8.624;2022-11-20T00:49:45;26.38;;;14.77;;
62554;SDS011;48610;52.144;8.624;2022-11-20T00:52:45;26.25;;;13.73;;
62554;SDS011;48610;52.144;8.624;2022-11-20T00:55:56;24.13;;;12.95;;
62554;SDS011;48610;52.144;8.624;2022-11-20T00:59:01;22.60;;;12.85;;
62554;SDS011;48610;52.144;8.624;2022-11-20T01:02:02;22.15;;;11.18;;
62554;SDS011;48610;52.144;8.624;2022-11-20T01:05:02;21.60;;;11.85;;
62554;SDS011;48610;52.144;8.624;2022-11-20T01:08:03;21.35;;;10.88;;
62554;SDS011;48610;52.144;8.624;2022-11-20T01:11:08;22.42;;;11.85;;
62554;SDS011;48610;52.144;8.624;2022-11-20T01:14:12;25.48;;;11.57;;
62554;SDS011;48610;52.144;8.624;2022-11-20T01:17:14;24.25;;;11.63;;
62554;SDS011;48610;52.144;8.624;2022-11-20T01:20:14;21.92;;;12.20;;
62554;SDS011;48610;52.144;8.624;2022-11-20T01:23:15;23.45;;;11.77;;
62554;SDS011;48610;52.144;8.624;2022-11-20T01:26:18;19.08;;;10.65;;
62554;SDS011;48610;52.144;8.624;2022-11-20T01:29:24;20.33;;;11.45;;
62554;SDS011;48610;52.144;8.624;2022-11-20T01:32:25;19.52;;;10.82;;
62554;SDS011;48610;52.144;8.624;2022-11-20T01:35:25;21.50;;;11.68;;
62554;SDS011;48610;52.144;8.624;2022-11-20T01:38:26;21.40;;;12.68;;
62554;SDS011;48610;52.144;8.624;2022-11-20T01:41:27;21.10;;;11.80;;
62554;SDS011;48610;52.144;8.624;2022-11-20T01:44:53;20.55;;;11.95;;
62554;SDS011;48610;52.144;8.624;2022-11-20T01:47:54;23.45;;;11.07;;
62554;SDS011;48610;52.144;8.624;2022-11-20T01:50:55;19.35;;;10.88;;
62554;SDS011;48610;52.144;8.624;2022-11-20T01:53:58;21.65;;;11.80;;
62554;SDS011;48610;52.144;8.624;2022-11-20T01:57:01;22.05;;;12.30;;
62554;SDS011;48610;52.144;8.624;2022-11-20T02:00:07;21.53;;;11.87;;
62554;SDS011;48610;52.144;8.624;2022-11-20T02:03:11;21.75;;;11.07;;
62554;SDS011;48610;52.144;8.624;2022-11-20T02:09:30;23.42;;;11.13;;
62554;SDS011;48610;52.144;8.624;2022-11-20T02:12:31;19.05;;;10.55;;
62554;SDS011;48610;52.144;8.624;2022-11-20T02:15:51;19.23;;;10.75;;
62554;SDS011;48610;52.144;8.624;2022-11-20T02:18:53;18.20;;;10.23;;
62554;SDS011;48610;52.144;8.624;2022-11-20T02:22:00;16.45;;;10.00;;
62554;SDS011;48610;52.144;8.624;2022-11-20T02:25:07;17.55;;;10.38;;
62554;SDS011;48610;52.144;8.624;2022-11-20T02:28:10;19.35;;;10.05;;
62554;SDS011;48610;52.144;8.624;2022-11-20T02:31:10;20.10;;;10.65;;
62554;SDS011;48610;52.144;8.624;2022-11-20T02:34:11;17.83;;;9.98;;
62554;SDS011;48610;52.144;8.624;2022-11-20T02:37:12;16.63;;;10.27;;
62554;SDS011;48610;52.144;8.624;2022-11-20T02:40:13;18.83;;;9.88;;
62554;SDS011;48610;52.144;8.624;2022-11-20T02:43:15;16.08;;;9.07;;
62554;SDS011;48610;52.144;8.624;2022-11-20T02:46:16;18.67;;;9.15;;
62554;SDS011;48610;52.144;8.624;2022-11-20T02:49:16;17.83;;;9.27;;
62554;SDS011;48610;52.144;8.624;2022-11-20T02:52:17;17.88;;;9.63;;
62554;SDS011;48610;52.144;8.624;2022-11-20T02:55:17;19.08;;;8.88;;
62554;SDS011;48610;52.144;8.624;2022-11-20T02:58:18;23.75;;;10.80;;
62554;SDS011;48610;52.144;8.624;2022-11-20T03:01:19;21.77;;;11.48;;
62554;SDS011;48610;52.144;8.624;2022-11-20T03:04:19;22.88;;;11.70;;
62554;SDS011;48610;52.144;8.624;2022-11-20T03:07:20;19.75;;;10.43;;
62554;SDS011;48610;52.144;8.624;2022-11-20T03:10:20;19.52;;;10.68;;
62554;SDS011;48610;52.144;8.624;2022-11-20T03:13:21;23.13;;;11.75;;
62554;SDS011;48610;52.144;8.624;2022-11-20T03:16:22;22.50;;;12.40;;
62554;SDS011;48610;52.144;8.624;2022-11-20T03:19:23;21.27;;;10.75;;
62554;SDS011;48610;52.144;8.624;2022-11-20T03:22:23;18.63;;;10.98;;
62554;SDS011;48610;52.144;8.624;2022-11-20T03:25:24;16.33;;;10.57;;
62554;SDS011;48610;52.144;8.624;2022-11-20T03:28:25;19.15;;;10.15;;
62554;SDS011;48610;52.144;8.624;2022-11-20T03:31:29;20.63;;;10.90;;
62554;SDS011;48610;52.144;8.624;2022-11-20T03:34:32;19.08;;;9.82;;
62554;SDS011;48610;52.144;8.624;2022-11-20T03:37:32;21.65;;;9.70;;
62554;SDS011;48610;52.144;8.624;2022-11-20T03:40:33;16.08;;;9.80;;
62554;SDS011;48610;52.144;8.624;2022-11-20T03:43:35;20.42;;;10.07;;
62554;SDS011;48610;52.144;8.624;2022-11-20T03:46:36;15.95;;;10.02;;
62554;SDS011;48610;52.144;8.624;2022-11-20T03:49:37;18.33;;;9.35;;
62554;SDS011;48610;52.144;8.624;2022-11-20T03:52:38;17.35;;;9.70;;
62554;SDS011;48610;52.144;8.624;2022-11-20T03:55:38;17.75;;;9.93;;
62554;SDS011;48610;52.144;8.624;2022-11-20T03:58:40;20.55;;;9.32;;
62554;SDS011;48610;52.144;8.624;2022-11-20T04:01:40;17.88;;;10.02;;
62554;SDS011;48610;52.144;8.624;2022-11-20T04:04:41;15.75;;;9.15;;
62554;SDS011;48610;52.144;8.624;2022-11-20T04:07:42;17.85;;;9.48;;
62554;SDS011;48610;52.144;8.624;2022-11-20T04:10:42;15.43;;;9.35;;
62554;SDS011;48610;52.144;8.624;2022-11-20T04:13:45;16.15;;;9.27;;
62554;SDS011;48610;52.144;8.624;2022-11-20T04:16:47;15.60;;;9.20;;
62554;SDS011;48610;52.144;8.624;2022-11-20T04:19:48;17.38;;;8.75;;
62554;SDS011;48610;52.144;8.624;2022-11-20T04:22:48;15.90;;;8.70;;
62554;SDS011;48610;52.144;8.624;2022-11-20T04:25:49;16.40;;;9.55;;
62554;SDS011;48610;52.144;8.624;2022-11-20T04:28:49;16.02;;;9.40;;
62554;SDS011;48610;52.144;8.624;2022-11-20T04:31:50;18.10;;;9.82;;
62554;SDS011;48610;52.144;8.624;2022-11-20T04:34:51;17.40;;;10.35;;
62554;SDS011;48610;52.144;8.624;2022-11-20T04:37:51;15.68;;;9.18;;
62554;SDS011;48610;52.144;8.624;2022-11-20T04:40:55;17.63;;;9.50;;
62554;SDS011;48610;52.144;8.624;2022-11-20T04:44:00;21.00;;;10.15;;
62554;SDS011;48610;52.144;8.624;2022-11-20T04:47:03;17.52;;;9.27;;
62554;SDS011;48610;52.144;8.624;2022-11-20T04:50:03;17.63;;;9.38;;
62554;SDS011;48610;52.144;8.624;2022-11-20T04:53:04;18.58;;;9.50;;
62554;SDS011;48610;52.144;8.624;2022-11-20T04:56:06;18.52;;;9.82;;
62554;SDS011;48610;52.144;8.624;2022-11-20T04:59:08;15.23;;;9.30;;
62554;SDS011;48610;52.144;8.624;2022-11-20T05:02:09;15.15;;;8.98;;
62554;SDS011;48610;52.144;8.624;2022-11-20T05:05:11;13.63;;;8.75;;
62554;SDS011;48610;52.144;8.624;2022-11-20T05:08:12;15.70;;;8.60;;
62554;SDS011;48610;52.144;8.624;2022-11-20T05:11:14;19.38;;;9.18;;
62554;SDS011;48610;52.144;8.624;2022-11-20T05:14:16;15.73;;;8.57;;
62554;SDS011;48610;52.144;8.624;2022-11-20T05:17:17;15.88;;;9.05;;
62554;SDS011;48610;52.144;8.624;2022-11-20T05:20:17;17.30;;;9.35;;
62554;SDS011;48610;52.144;8.624;2022-11-20T05:23:19;19.42;;;9.27;;
62554;SDS011;48610;52.144;8.624;2022-11-20T05:26:20;21.92;;;10.00;;
62554;SDS011;48610;52.144;8.624;2022-11-20T05:29:21;19.17;;;9.48;;
62554;SDS011;48610;52.144;8.624;2022-11-20T05:32:22;19.13;;;10.95;;
62554;SDS011;48610;52.144;8.624;2022-11-20T05:35:25;18.85;;;9.98;;
62554;SDS011;48610;52.144;8.624;2022-11-20T05:38:25;16.13;;;9.23;;
62554;SDS011;48610;52.144;8.624;2022-11-20T05:41:26;18.50;;;9.80;;
62554;SDS011;48610;52.144;8.624;2022-11-20T05:44:27;23.35;;;9.75;;
62554;SDS011;48610;52.144;8.624;2022-11-20T05:47:28;17.88;;;8.85;;
62554;SDS011;48610;52.144;8.624;2022-11-20T05:50:32;15.43;;;8.87;;
62554;SDS011;48610;52.144;8.624;2022-11-20T05:53:33;21.73;;;9.70;;
62554;SDS011;48610;52.144;8.624;2022-11-20T05:56:34;15.32;;;8.77;;
62554;SDS011;48610;52.144;8.624;2022-11-20T05:59:35;16.52;;;9.27;;
62554;SDS011;48610;52.144;8.624;2022-11-20T06:02:35;16.92;;;9.15;;
62554;SDS011;48610;52.144;8.624;2022-11-20T06:05:36;14.50;;;8.52;;
62554;SDS011;48610;52.144;8.624;2022-11-20T06:08:37;15.27;;;8.55;;
62554;SDS011;48610;52.144;8.624;2022-11-20T06:11:37;18.10;;;8.18;;
62554;SDS011;48610;52.144;8.624;2022-11-20T06:14:38;16.67;;;8.60;;
62554;SDS011;48610;52.144;8.624;2022-11-20T06:17:38;14.30;;;7.65;;
62554;SDS011;48610;52.144;8.624;2022-11-20T06:20:39;16.75;;;8.80;;
62554;SDS011;48610;52.144;8.624;2022-11-20T06:23:40;18.45;;;8.20;;
62554;SDS011;48610;52.144;8.624;2022-11-20T06:26:40;15.65;;;8.55;;
62554;SDS011;48610;52.144;8.624;2022-11-20T06:29:41;15.40;;;8.18;;
62554;SDS011;48610;52.144;8.624;2022-11-20T06:32:42;17.63;;;8.50;;
62554;SDS011;48610;52.144;8.624;2022-11-20T06:35:42;15.07;;;7.97;;
62554;SDS011;48610;52.144;8.624;2022-11-20T06:38:43;17.08;;;7.80;;
62554;SDS011;48610;52.144;8.624;2022-11-20T06:41:44;12.98;;;8.63;;
62554;SDS011;48610;52.144;8.624;2022-11-20T06:44:44;14.13;;;8.00;;
62554;SDS011;48610;52.144;8.624;2022-11-20T06:47:45;18.23;;;8.35;;
62554;SDS011;48610;52.144;8.624;2022-11-20T06:50:45;13.70;;;8.10;;
62554;SDS011;48610;52.144;8.624;2022-11-20T06:53:46;17.27;;;8.70;;
62554;SDS011;48610;52.144;8.624;2022-11-20T06:56:47;13.55;;;8.23;;
62554;SDS011;48610;52.144;8.624;2022-11-20T06:59:48;14.48;;;8.68;;
62554;SDS011;48610;52.144;8.624;2022-11-20T07:02:48;12.15;;;7.70;;
62554;SDS011;48610;52.144;8.624;2022-11-20T07:05:49;14.40;;;8.43;;
62554;SDS011;48610;52.144;8.624;2022-11-20T07:08:50;12.30;;;8.13;;
62554;SDS011;48610;52.144;8.624;2022-11-20T07:11:52;16.88;;;9.48;;
62554;SDS011;48610;52.144;8.624;2022-11-20T07:14:53;14.50;;;8.30;;
62554;SDS011;48610;52.144;8.624;2022-11-20T07:17:53;14.35;;;9.20;;
62554;SDS011;48610;52.144;8.624;2022-11-20T07:20:54;12.52;;;8.30;;
62554;SDS011;48610;52.144;8.624;2022-11-20T07:23:54;16.15;;;8.98;;
62554;SDS011;48610;52.144;8.624;2022-11-20T07:26:55;14.85;;;8.85;;
62554;SDS011;48610;52.144;8.624;2022-11-20T07:29:56;14.43;;;8.55;;
62554;SDS011;48610;52.144;8.624;2022-11-20T07:32:56;14.55;;;9.07;;
62554;SDS011;48610;52.144;8.624;2022-11-20T07:36:00;17.50;;;9.60;;
62554;SDS011;48610;52.144;8.624;2022-11-20T07:39:01;18.13;;;8.27;;
62554;SDS011;48610;52.144;8.624;2022-11-20T07:42:02;13.07;;;8.25;;
62554;SDS011;48610;52.144;8.624;2022-11-20T07:45:03;14.85;;;8.45;;
62554;SDS011;48610;52.144;8.624;2022-11-20T07:48:04;17.42;;;10.25;;
62554;SDS011;48610;52.144;8.624;2022-11-20T07:51:04;16.83;;;9.15;;
62554;SDS011;48610;52.144;8.624;2022-11-20T07:54:05;16.30;;;9.32;;
62554;SDS011;48610;52.144;8.624;2022-11-20T07:57:06;12.13;;;7.07;;
62554;SDS011;48610;52.144;8.624;2022-11-20T08:00:07;15.25;;;8.77;;
62554;SDS011;48610;52.144;8.624;2022-11-20T08:03:10;16.60;;;9.52;;
62554;SDS011;48610;52.144;8.624;2022-11-20T08:06:10;11.85;;;7.45;;
62554;SDS011;48610;52.144;8.624;2022-11-20T08:09:11;13.15;;;8.70;;
62554;SDS011;48610;52.144;8.624;2022-11-20T08:12:18;15.75;;;8.98;;
62554;SDS011;48610;52.144;8.624;2022-11-20T08:15:39;19.15;;;9.75;;
62554;SDS011;48610;52.144;8.624;2022-11-20T08:18:40;16.42;;;9.45;;
62554;SDS011;48610;52.144;8.624;2022-11-20T08:21:41;18.42;;;10.45;;
62554;SDS011;48610;52.144;8.624;2022-11-20T08:24:41;16.20;;;9.45;;
62554;SDS011;48610;52.144;8.624;2022-11-20T08:27:42;18.02;;;10.10;;
62554;SDS011;48610;52.144;8.624;2022-11-20T08:30:42;19.10;;;10.13;;
62554;SDS011;48610;52.144;8.624;2022-11-20T08:33:43;22.88;;;10.18;;
62554;SDS011;48610;52.144;8.624;2022-11-20T08:39:46;17.52;;;9.63;;
62554;SDS011;48610;52.144;8.624;2022-11-20T08:42:47;22.52;;;10.93;;
62554;SDS011;48610;52.144;8.624;2022-11-20T08:45:49;21.02;;;10.55;;
62554;SDS011;48610;52.144;8.624;2022-11-20T08:48:49;29.58;;;11.75;;
62554;SDS011;48610;52.144;8.624;2022-11-20T08:51:50;26.38;;;11.40;;
62554;SDS011;48610;52.144;8.624;2022-11-20T08:54:52;19.80;;;9.63;;
62554;SDS011;48610;52.144;8.624;2022-11-20T08:57:52;22.65;;;11.80;;
62554;SDS011;48610;52.144;8.624;2022-11-20T09:00:53;24.95;;;11.23;;
62554;SDS011;48610;52.144;8.624;2022-11-20T09:03:57;25.63;;;10.93;;
62554;SDS011;48610;52.144;8.624;2022-11-20T09:06:59;22.13;;;11.23;;
62554;SDS011;48610;52.144;8.624;2022-11-20T09:10:00;22.98;;;11.77;;
62554;SDS011;48610;52.144;8.624;2022-11-20T09:13:01;23.85;;;11.65;;
62554;SDS011;48610;52.144;8.624;2022-11-20T09:16:04;19.60;;;11.38;;
62554;SDS011;48610;52.144;8.624;2022-11-20T09:19:06;17.83;;;9.75;;
62554;SDS011;48610;52.144;8.624;2022-11-20T09:22:07;17.40;;;10.25;;
62554;SDS011;48610;52.144;8.624;2022-11-20T09:25:08;27.45;;;12.65;;
62554;SDS011;48610;52.144;8.624;2022-11-20T09:28:09;17.92;;;10.30;;
62554;SDS011;48610;52.144;8.624;2022-11-20T09:31:30;22.05;;;11.70;;
62554;SDS011;48610;52.144;8.624;2022-11-20T09:34:30;23.80;;;12.00;;
62554;SDS011;48610;52.144;8.624;2022-11-20T09:37:31;23.35;;;11.38;;
62554;SDS011;48610;52.144;8.624;2022-11-20T09:40:32;31.98;;;13.05;;
62554;SDS011;48610;52.144;8.624;2022-11-20T09:47:01;15.90;;;9.57;;
62554;SDS011;48610;52.144;8.624;2022-11-20T09:51:16;19.85;;;11.63;;
62554;SDS011;48610;52.144;8.624;2022-11-20T09:57:05;20.25;;;12.00;;
62554;SDS011;48610;52.144;8.624;2022-11-20T10:00:14;23.77;;;12.90;;
62554;SDS011;48610;52.144;8.624;2022-11-20T10:03:20;25.13;;;12.15;;
62554;SDS011;48610;52.144;8.624;2022-11-20T10:06:33;22.50;;;11.32;;
62554;SDS011;48610;52.144;8.624;2022-11-20T10:09:41;21.10;;;12.95;;
62554;SDS011;48610;52.144;8.624;2022-11-20T10:25:55;22.90;;;12.63;;
62554;SDS011;48610;52.144;8.624;2022-11-20T10:29:13;20.93;;;12.33;;
62554;SDS011;48610;52.144;8.624;2022-11-20T10:32:18;26.17;;;12.43;;
62554;SDS011;48610;52.144;8.624;2022-11-20T10:35:31;18.73;;;11.30;;
62554;SDS011;48610;52.144;8.624;2022-11-20T10:38:40;19.77;;;12.65;;
62554;SDS011;48610;52.144;8.624;2022-11-20T10:41:47;17.73;;;10.38;;
62554;SDS011;48610;52.144;8.624;2022-11-20T10:44:52;20.10;;;11.27;;
62554;SDS011;48610;52.144;8.624;2022-11-20T10:55:18;12.60;;;8.38;;
62554;SDS011;48610;52.144;8.624;2022-11-20T11:05:46;12.20;;;7.90;;
62554;SDS011;48610;52.144;8.624;2022-11-20T11:08:55;14.25;;;8.15;;
62554;SDS011;48610;52.144;8.624;2022-11-20T11:11:58;11.90;;;8.38;;
62554;SDS011;48610;52.144;8.624;2022-11-20T11:14:59;12.55;;;8.52;;
62554;SDS011;48610;52.144;8.624;2022-11-20T11:17:59;12.73;;;8.27;;
62554;SDS011;48610;52.144;8.624;2022-11-20T11:21:01;11.63;;;7.97;;
62554;SDS011;48610;52.144;8.624;2022-11-20T11:24:04;12.82;;;8.50;;
62554;SDS011;48610;52.144;8.624;2022-11-20T11:27:11;11.85;;;7.88;;
62554;SDS011;48610;52.144;8.624;2022-11-20T11:30:14;13.65;;;8.43;;
62554;SDS011;48610;52.144;8.624;2022-11-20T11:36:22;12.43;;;8.25;;
62554;SDS011;48610;52.144;8.624;2022-11-20T11:39:26;14.02;;;7.65;;
62554;SDS011;48610;52.144;8.624;2022-11-20T11:42:29;14.30;;;8.18;;
62554;SDS011;48610;52.144;8.624;2022-11-20T11:45:30;12.57;;;7.90;;
62554;SDS011;48610;52.144;8.624;2022-11-20T11:48:31;14.00;;;8.18;;
62554;SDS011;48610;52.144;8.624;2022-11-20T11:51:39;12.88;;;8.52;;
62554;SDS011;48610;52.144;8.624;2022-11-20T11:54:58;13.52;;;8.07;;
62554;SDS011;48610;52.144;8.624;2022-11-20T11:58:14;14.60;;;8.93;;
62554;SDS011;48610;52.144;8.624;2022-11-20T12:04:48;14.25;;;8.32;;
62554;SDS011;48610;52.144;8.624;2022-11-20T12:07:57;10.88;;;7.60;;
62554;SDS011;48610;52.144;8.624;2022-11-20T12:11:12;12.32;;;8.20;;
62554;SDS011;48610;52.144;8.624;2022-11-20T12:14:32;12.63;;;8.65;;
62554;SDS011;48610;52.144;8.624;2022-11-20T12:17:36;12.18;;;7.82;;
62554;SDS011;48610;52.144;8.624;2022-11-20T12:20:40;10.75;;;7.43;;
62554;SDS011;48610;52.144;8.624;2022-11-20T12:30:30;13.15;;;7.00;;
62554;SDS011;48610;52.144;8.624;2022-11-20T12:43:59;9.07;;;5.20;;
62554;SDS011;48610;52.144;8.624;2022-11-20T12:54:40;8.93;;;5.80;;
62554;SDS011;48610;52.144;8.624;2022-11-20T12:57:57;10.25;;;5.63;;
62554;SDS011;48610;52.144;8.624;2022-11-20T13:07:55;8.88;;;5.50;;
62554;SDS011;48610;52.144;8.624;2022-11-20T13:17:59;8.75;;;5.25;;
62554;SDS011;48610;52.144;8.624;2022-11-20T13:21:12;9.85;;;5.70;;
62554;SDS011;48610;52.144;8.624;2022-11-20T13:27:23;10.30;;;5.65;;
62554;SDS011;48610;52.144;8.624;2022-11-20T13:30:25;8.48;;;5.80;;
62554;SDS011;48610;52.144;8.624;2022-11-20T13:33:31;7.78;;;5.80;;
62554;SDS011;48610;52.144;8.624;2022-11-20T13:36:32;10.20;;;5.97;;
62554;SDS011;48610;52.144;8.624;2022-11-20T13:39:36;10.65;;;5.80;;
62554;SDS011;48610;52.144;8.624;2022-11-20T13:42:44;8.02;;;5.93;;
62554;SDS011;48610;52.144;8.624;2022-11-20T13:45:58;9.10;;;5.82;;
62554;SDS011;48610;52.144;8.624;2022-11-20T13:49:05;9.70;;;5.78;;
62554;SDS011;48610;52.144;8.624;2022-11-20T13:56:10;11.32;;;5.95;;
62554;SDS011;48610;52.144;8.624;2022-11-20T14:02:28;7.57;;;4.75;;
62554;SDS011;48610;52.144;8.624;2022-11-20T14:05:30;9.13;;;5.63;;
62554;SDS011;48610;52.144;8.624;2022-11-20T14:08:37;9.05;;;4.97;;
62554;SDS011;48610;52.144;8.624;2022-11-20T14:11:46;7.22;;;5.15;;
62554;SDS011;48610;52.144;8.624;2022-11-20T14:14:49;9.05;;;5.45;;
62554;SDS011;48610;52.144;8.624;2022-11-20T14:17:51;7.43;;;4.82;;
62554;SDS011;48610;52.144;8.624;2022-11-20T14:20:51;8.43;;;5.50;;
62554;SDS011;48610;52.144;8.624;2022-11-20T14:23:53;7.40;;;4.75;;
62554;SDS011;48610;52.144;8.624;2022-11-20T14:27:03;8.45;;;5.25;;
62554;SDS011;48610;52.144;8.624;2022-11-20T14:30:04;8.25;;;5.63;;
62554;SDS011;48610;52.144;8.624;2022-11-20T14:33:06;9.82;;;5.65;;
62554;SDS011;48610;52.144;8.624;2022-11-20T14:36:15;7.50;;;5.13;;
62554;SDS011;48610;52.144;8.624;2022-11-20T14:39:22;8.23;;;5.60;;
62554;SDS011;48610;52.144;8.624;2022-11-20T14:42:32;9.25;;;5.60;;
62554;SDS011;48610;52.144;8.624;2022-11-20T14:45:33;10.90;;;6.13;;
62554;SDS011;48610;52.144;8.624;2022-11-20T14:48:46;9.32;;;5.40;;
62554;SDS011;48610;52.144;8.624;2022-11-20T14:52:02;8.45;;;5.63;;
62554;SDS011;48610;52.144;8.624;2022-11-20T14:58:24;10.27;;;5.60;;
62554;SDS011;48610;52.144;8.624;2022-11-20T15:01:30;9.52;;;5.90;;
62554;SDS011;48610;52.144;8.624;2022-11-20T15:04:33;12.60;;;6.97;;
62554;SDS011;48610;52.144;8.624;2022-11-20T15:07:45;11.13;;;7.22;;
62554;SDS011;48610;52.144;8.624;2022-11-20T15:10:50;15.55;;;7.55;;
62554;SDS011;48610;52.144;8.624;2022-11-20T15:13:52;12.70;;;7.75;;
62554;SDS011;48610;52.144;8.624;2022-11-20T15:16:52;26.02;;;12.82;;
62554;SDS011;48610;52.144;8.624;2022-11-20T15:19:53;13.77;;;8.23;;
62554;SDS011;48610;52.144;8.624;2022-11-20T15:22:55;20.10;;;11.55;;
62554;SDS011;48610;52.144;8.624;2022-11-20T15:25:56;15.45;;;8.73;;
62554;SDS011;48610;52.144;8.624;2022-11-20T15:28:57;15.18;;;7.80;;
62554;SDS011;48610;52.144;8.624;2022-11-20T15:31:58;18.85;;;9.05;;
62554;SDS011;48610;52.144;8.624;2022-11-20T15:34:59;16.33;;;8.25;;
62554;SDS011;48610;52.144;8.624;2022-11-20T15:37:59;15.73;;;8.20;;
62554;SDS011;48610;52.144;8.624;2022-11-20T15:41:00;14.60;;;7.88;;
62554;SDS011;48610;52.144;8.624;2022-11-20T15:44:01;15.25;;;8.52;;
62554;SDS011;48610;52.144;8.624;2022-11-20T15:47:02;14.15;;;7.18;;
62554;SDS011;48610;52.144;8.624;2022-11-20T15:50:02;12.80;;;8.38;;
62554;SDS011;48610;52.144;8.624;2022-11-20T15:53:04;14.07;;;7.15;;
62554;SDS011;48610;52.144;8.624;2022-11-20T15:56:05;13.10;;;8.57;;
62554;SDS011;48610;52.144;8.624;2022-11-20T15:59:06;14.48;;;8.45;;
62554;SDS011;48610;52.144;8.624;2022-11-20T16:02:13;13.15;;;8.27;;
62554;SDS011;48610;52.144;8.624;2022-11-20T16:05:15;19.05;;;9.00;;
62554;SDS011;48610;52.144;8.624;2022-11-20T16:08:17;12.23;;;7.97;;
62554;SDS011;48610;52.144;8.624;2022-11-20T16:11:18;13.70;;;7.70;;
62554;SDS011;48610;52.144;8.624;2022-11-20T16:14:18;13.15;;;8.38;;
62554;SDS011;48610;52.144;8.624;2022-11-20T16:17:38;15.85;;;8.70;;
62554;SDS011;48610;52.144;8.624;2022-11-20T16:20:45;15.70;;;9.20;;
62554;SDS011;48610;52.144;8.624;2022-11-20T16:23:47;16.65;;;9.27;;
62554;SDS011;48610;52.144;8.624;2022-11-20T16:26:48;21.83;;;10.90;;
62554;SDS011;48610;52.144;8.624;2022-11-20T16:29:49;56.20;;;24.83;;
62554;SDS011;48610;52.144;8.624;2022-11-20T16:32:50;39.55;;;17.58;;
62554;SDS011;48610;52.144;8.624;2022-11-20T16:35:50;15.57;;;9.65;;
62554;SDS011;48610;52.144;8.624;2022-11-20T16:38:51;25.98;;;12.00;;
62554;SDS011;48610;52.144;8.624;2022-11-20T16:42:03;18.73;;;9.68;;
62554;SDS011;48610;52.144;8.624;2022-11-20T16:45:04;18.40;;;9.40;;
62554;SDS011;48610;52.144;8.624;2022-11-20T16:48:05;16.65;;;9.20;;
62554;SDS011;48610;52.144;8.624;2022-11-20T16:51:09;18.13;;;9.73;;
62554;SDS011;48610;52.144;8.624;2022-11-20T16:54:11;17.92;;;9.95;;
62554;SDS011;48610;52.144;8.624;2022-11-20T16:57:12;19.95;;;10.02;;
62554;SDS011;48610;52.144;8.624;2022-11-20T17:00:12;16.38;;;9.82;;
62554;SDS011;48610;52.144;8.624;2022-11-20T17:03:13;18.75;;;8.73;;
62554;SDS011;48610;52.144;8.624;2022-11-20T17:06:17;16.10;;;8.20;;
62554;SDS011;48610;52.144;8.624;2022-11-20T17:09:20;15.98;;;8.90;;
62554;SDS011;48610;52.144;8.624;2022-11-20T17:12:21;13.82;;;8.77;;
62554;SDS011;48610;52.144;8.624;2022-11-20T17:15:21;15.65;;;8.90;;
62554;SDS011;48610;52.144;8.624;2022-11-20T17:18:22;13.85;;;8.30;;
62554;SDS011;48610;52.144;8.624;2022-11-20T17:21:23;14.60;;;8.45;;
62554;SDS011;48610;52.144;8.624;2022-11-20T17:24:24;15.32;;;7.65;;
62554;SDS011;48610;52.144;8.624;2022-11-20T17:27:24;17.27;;;8.60;;
62554;SDS011;48610;52.144;8.624;2022-11-20T17:30:25;13.93;;;8.52;;
62554;SDS011;48610;52.144;8.624;2022-11-20T17:33:26;15.95;;;9.05;;
62554;SDS011;48610;52.144;8.624;2022-11-20T17:36:28;17.17;;;9.25;;
62554;SDS011;48610;52.144;8.624;2022-11-20T17:39:29;18.13;;;9.15;;
62554;SDS011;48610;52.144;8.624;2022-11-20T17:42:30;14.82;;;8.73;;
62554;SDS011;48610;52.144;8.624;2022-11-20T17:45:35;17.00;;;8.60;;
62554;SDS011;48610;52.144;8.624;2022-11-20T17:48:37;15.98;;;9.00;;
62554;SDS011;48610;52.144;8.624;2022-11-20T17:51:41;14.68;;;9.23;;
62554;SDS011;48610;52.144;8.624;2022-11-20T17:54:41;17.77;;;10.48;;
62554;SDS011;48610;52.144;8.624;2022-11-20T17:57:42;19.05;;;10.57;;
62554;SDS011;48610;52.144;8.624;2022-11-20T18:00:51;18.00;;;10.32;;
62554;SDS011;48610;52.144;8.624;2022-11-20T18:03:52;19.88;;;10.48;;
62554;SDS011;48610;52.144;8.624;2022-11-20T18:06:55;20.70;;;9.85;;
62554;SDS011;48610;52.144;8.624;2022-11-20T18:09:56;19.60;;;10.15;;
62554;SDS011;48610;52.144;8.624;2022-11-20T18:12:56;20.27;;;11.55;;
62554;SDS011;48610;52.144;8.624;2022-11-20T18:16:05;18.60;;;10.90;;
62554;SDS011;48610;52.144;8.624;2022-11-20T18:19:06;17.17;;;9.57;;
62554;SDS011;48610;52.144;8.624;2022-11-20T18:22:06;15.52;;;9.15;;
62554;SDS011;48610;52.144;8.624;2022-11-20T18:25:08;18.00;;;9.15;;
62554;SDS011;48610;52.144;8.624;2022-11-20T18:28:09;18.95;;;9.02;;
62554;SDS011;48610;52.144;8.624;2022-11-20T18:31:09;19.55;;;11.23;;
62554;SDS011;48610;52.144;8.624;2022-11-20T18:34:10;20.80;;;11.13;;
62554;SDS011;48610;52.144;8.624;2022-11-20T18:37:13;20.52;;;12.52;;
62554;SDS011;48610;52.144;8.624;2022-11-20T18:40:15;22.27;;;9.88;;
62554;SDS011;48610;52.144;8.624;2022-11-20T18:43:16;16.08;;;9.35;;
62554;SDS011;48610;52.144;8.624;2022-11-20T18:46:35;16.77;;;8.98;;
62554;SDS011;48610;52.144;8.624;2022-11-20T18:49:36;18.08;;;9.48;;
62554;SDS011;48610;52.144;8.624;2022-11-20T18:52:38;14.13;;;8.30;;
62554;SDS011;48610;52.144;8.624;2022-11-20T18:55:40;16.83;;;8.95;;
62554;SDS011;48610;52.144;8.624;2022-11-20T18:58:41;15.23;;;8.60;;
62554;SDS011;48610;52.144;8.624;2022-11-20T19:01:42;18.13;;;9.35;;
62554;SDS011;48610;52.144;8.624;2022-11-20T19:04:43;15.90;;;8.65;;
62554;SDS011;48610;52.144;8.624;2022-11-20T19:07:43;21.17;;;9.00;;
62554;SDS011;48610;52.144;8.624;2022-11-20T19:10:44;14.85;;;8.80;;
62554;SDS011;48610;52.144;8.624;2022-11-20T19:13:44;15.88;;;9.60;;
62554;SDS011;48610;52.144;8.624;2022-11-20T19:16:45;17.00;;;9.90;;
62554;SDS011;48610;52.144;8.624;2022-11-20T19:19:47;19.38;;;10.38;;
62554;SDS011;48610;52.144;8.624;2022-11-20T19:22:49;16.42;;;8.35;;
62554;SDS011;48610;52.144;8.624;2022-11-20T19:25:50;16.00;;;8.80;;
62554;SDS011;48610;52.144;8.624;2022-11-20T19:28:50;11.98;;;7.15;;
62554;SDS011;48610;52.144;8.624;2022-11-20T19:31:51;14.40;;;8.48;;
62554;SDS011;48610;52.144;8.624;2022-11-20T19:34:52;15.38;;;8.35;;
62554;SDS011;48610;52.144;8.624;2022-11-20T19:37:52;15.23;;;7.82;;
62554;SDS011;48610;52.144;8.624;2022-11-20T19:40:53;16.38;;;8.52;;